createdAt,value
2023-03-28T00:00:51.333Z,95.81
2023-03-28T00:01:51.331Z,95.92
2023-03-28T00:02:51.354Z,95.92
2023-03-28T00:03:51.334Z,95.98
2023-03-28T00:04:51.292Z,96.33
2023-03-28T00:05:51.319Z,95.92
2023-03-28T00:06:51.273Z,96.12
2023-03-28T00:07:51.247Z,96.33
2023-03-28T00:08:51.237Z,96.33
2023-03-28T00:09:51.263Z,96.12
2023-03-28T00:10:51.233Z,95.92
2023-03-28T00:11:51.225Z,96.23
2023-03-28T00:12:51.199Z,95.81
2023-03-28T00:13:51.184Z,95.92
2023-03-28T00:14:51.169Z,96.23
2023-03-28T00:15:51.208Z,96.44
2023-03-28T00:16:51.152Z,96.02
2023-03-28T00:17:51.181Z,96.08
2023-03-28T00:18:51.246Z,95.92
2023-03-28T00:19:51.127Z,95.66
2023-03-28T00:20:51.095Z,95.76
2023-03-28T00:21:51.114Z,95.87
2023-03-28T00:22:51.098Z,95.70
2023-03-28T00:23:51.088Z,95.66
2023-03-28T00:24:51.049Z,96.12
2023-03-28T00:25:51.062Z,95.66
2023-03-28T00:26:51.054Z,95.76
2023-03-28T00:27:51.023Z,96.02
2023-03-28T00:28:51.038Z,95.81
2023-03-28T00:29:51.001Z,95.70
2023-03-28T00:30:51.069Z,95.92
2023-03-28T00:31:51.080Z,95.76
2023-03-28T00:32:51.062Z,95.60
2023-03-28T00:33:50.990Z,95.92
2023-03-28T00:34:50.952Z,95.70
2023-03-28T00:35:50.958Z,95.56
2023-03-28T00:36:50.934Z,95.87
2023-03-28T00:37:50.924Z,95.50
2023-03-28T00:38:50.915Z,95.50
2023-03-28T00:39:50.887Z,95.92
2023-03-28T00:40:50.882Z,95.70
2023-03-28T00:41:50.884Z,95.81
2023-03-28T00:42:50.868Z,95.60
2023-03-28T00:43:50.862Z,95.50
2023-03-28T00:44:50.854Z,95.70
2023-03-28T00:45:59.221Z,95.70
2023-03-28T00:46:51.874Z,95.81
2023-03-28T00:47:50.858Z,95.92
2023-03-28T00:48:50.784Z,95.92
2023-03-28T00:49:50.782Z,95.92
2023-03-28T00:50:50.764Z,95.70
2023-03-28T00:51:50.754Z,96.02
2023-03-28T00:52:50.744Z,95.92
2023-03-28T00:53:50.753Z,95.92
2023-03-28T00:54:50.716Z,96.12
2023-03-28T00:55:50.722Z,95.81
2023-03-28T00:56:50.816Z,95.50
2023-03-28T00:57:50.731Z,95.70
2023-03-28T00:58:50.685Z,95.70
2023-03-28T00:59:50.661Z,95.39
2023-03-28T01:00:50.684Z,94.97
2023-03-28T01:01:50.756Z,94.87
2023-03-28T01:02:50.817Z,95.29
2023-03-28T01:03:50.703Z,95.60
2023-03-28T01:04:50.610Z,95.50
2023-03-28T01:05:50.605Z,95.07
2023-03-28T01:06:50.587Z,95.50
2023-03-28T01:07:50.593Z,95.50
2023-03-28T01:08:50.557Z,96.02
2023-03-28T01:09:50.552Z,95.50
2023-03-28T01:10:50.541Z,95.39
2023-03-28T01:11:50.535Z,95.50
2023-03-28T01:12:50.527Z,96.02
2023-03-28T01:13:50.531Z,96.02
2023-03-28T01:14:50.490Z,95.70
2023-03-28T01:15:50.576Z,95.70
2023-03-28T01:16:50.470Z,95.70
2023-03-28T01:17:50.521Z,95.81
2023-03-28T01:18:50.462Z,95.92
2023-03-28T01:19:50.462Z,96.33
2023-03-28T01:20:50.420Z,96.12
2023-03-28T01:21:50.402Z,96.23
2023-03-28T01:22:56.952Z,95.70
2023-03-28T01:23:51.380Z,95.96
2023-03-28T01:24:50.382Z,96.06
2023-03-28T01:25:50.378Z,96.12
2023-03-28T01:26:50.360Z,95.81
2023-03-28T01:27:50.340Z,96.06
2023-03-28T01:28:50.346Z,95.70
2023-03-28T01:29:50.331Z,95.92
2023-03-28T01:30:50.317Z,95.96
2023-03-28T01:31:50.326Z,95.54
2023-03-28T01:32:50.346Z,95.96
2023-03-28T01:33:50.269Z,95.96
2023-03-28T01:34:50.262Z,96.06
2023-03-28T01:35:50.299Z,95.81
2023-03-28T01:36:50.252Z,95.92
2023-03-28T01:37:50.227Z,95.86
2023-03-28T01:38:50.212Z,96.02
2023-03-28T01:39:50.204Z,95.23
2023-03-28T01:40:50.222Z,95.33
2023-03-28T01:41:50.180Z,95.39
2023-03-28T01:42:50.186Z,95.43
2023-03-28T01:43:50.176Z,95.12
2023-03-28T01:44:50.148Z,95.54
2023-03-28T01:45:50.216Z,96.12
2023-03-28T01:46:50.153Z,96.02
2023-03-28T01:47:50.128Z,95.60
2023-03-28T01:48:50.108Z,95.60
2023-03-28T01:49:50.087Z,95.70
2023-03-28T01:50:50.078Z,95.39
2023-03-28T01:51:50.102Z,95.50
2023-03-28T01:52:50.062Z,95.75
2023-03-28T01:53:50.045Z,95.39
2023-03-28T01:54:50.048Z,95.39
2023-03-28T01:55:50.024Z,94.97
2023-03-28T01:56:50.066Z,94.70
2023-03-28T01:57:50.067Z,94.70
2023-03-28T01:58:49.993Z,95.29
2023-03-28T01:59:49.982Z,95.50
2023-03-28T02:00:49.991Z,95.43
2023-03-28T02:01:49.975Z,95.43
2023-03-28T02:02:50.088Z,95.60
2023-03-28T02:03:49.930Z,95.50
2023-03-28T02:04:49.932Z,95.50
2023-03-28T02:05:49.924Z,95.54
2023-03-28T02:06:49.922Z,95.43
2023-03-28T02:07:49.886Z,95.75
2023-03-28T02:08:49.879Z,95.54
2023-03-28T02:09:49.862Z,95.60
2023-03-28T02:10:49.884Z,95.50
2023-03-28T02:11:49.843Z,95.12
2023-03-28T02:12:49.840Z,95.12
2023-03-28T02:13:49.848Z,95.64
2023-03-28T02:14:49.810Z,95.50
2023-03-28T02:15:49.817Z,95.86
2023-03-28T02:16:49.944Z,95.60
2023-03-28T02:17:49.862Z,95.81
2023-03-28T02:18:49.806Z,95.86
2023-03-28T02:19:49.760Z,95.75
2023-03-28T02:20:49.759Z,95.75
2023-03-28T02:21:49.733Z,95.86
2023-03-28T02:22:49.746Z,96.06
2023-03-28T02:23:49.722Z,95.64
2023-03-28T02:24:49.823Z,95.64
2023-03-28T02:25:49.691Z,95.70
2023-03-28T02:26:49.686Z,95.70
2023-03-28T02:27:49.677Z,95.86
2023-03-28T02:28:49.670Z,95.96
2023-03-28T02:29:49.667Z,95.81
2023-03-28T02:30:49.656Z,95.50
2023-03-28T02:31:49.729Z,95.92
2023-03-28T02:32:49.714Z,95.60
2023-03-28T02:33:49.621Z,95.81
2023-03-28T02:34:49.619Z,95.75
2023-03-28T02:35:49.657Z,95.54
2023-03-28T02:36:49.601Z,95.75
2023-03-28T02:37:49.581Z,95.54
2023-03-28T02:38:49.555Z,95.39
2023-03-28T02:39:49.538Z,95.75
2023-03-28T02:40:49.528Z,95.43
2023-03-28T02:41:49.537Z,95.54
2023-03-28T02:42:49.538Z,94.97
2023-03-28T02:43:49.495Z,94.97
2023-03-28T02:44:49.503Z,95.50
2023-03-28T02:45:49.496Z,95.33
2023-03-28T02:46:49.463Z,95.60
2023-03-28T02:47:49.506Z,95.54
2023-03-28T02:48:49.453Z,95.43
2023-03-28T02:49:50.855Z,95.54
2023-03-28T02:50:49.439Z,96.06
2023-03-28T02:51:49.404Z,95.96
2023-03-28T02:52:49.399Z,96.06
2023-03-28T02:53:49.390Z,95.86
2023-03-28T02:54:49.394Z,95.75
2023-03-28T02:55:49.380Z,95.54
2023-03-28T02:56:49.406Z,96.06
2023-03-28T02:57:49.338Z,96.06
2023-03-28T02:58:49.336Z,95.75
2023-03-28T02:59:49.322Z,95.96
2023-03-28T03:00:49.338Z,96.23
2023-03-28T03:01:49.322Z,96.37
2023-03-28T03:02:49.357Z,97.00
2023-03-28T03:03:49.301Z,97.42
2023-03-28T03:04:49.259Z,97.74
2023-03-28T03:05:49.294Z,97.99
2023-03-28T03:06:49.259Z,98.37
2023-03-28T03:07:49.223Z,98.41
2023-03-28T03:08:49.220Z,98.68
2023-03-28T03:09:49.206Z,98.94
2023-03-28T03:10:49.214Z,98.72
2023-03-28T03:11:49.196Z,98.72
2023-03-28T03:12:49.181Z,98.83
2023-03-28T03:13:49.175Z,99.04
2023-03-28T03:14:49.150Z,98.94
2023-03-28T03:15:49.236Z,98.98
2023-03-28T03:16:49.127Z,98.83
2023-03-28T03:17:49.153Z,99.15
2023-03-28T03:18:49.123Z,99.35
2023-03-28T03:19:49.108Z,99.77
2023-03-28T03:20:49.101Z,99.57
2023-03-28T03:21:49.088Z,99.30
2023-03-28T03:22:49.078Z,99.57
2023-03-28T03:23:49.051Z,99.67
2023-03-28T03:24:49.056Z,99.46
2023-03-28T03:25:49.056Z,99.88
2023-03-28T03:26:49.012Z,99.57
2023-03-28T03:27:49.000Z,98.83
2023-03-28T03:28:48.989Z,98.41
2023-03-28T03:29:49.001Z,98.52
2023-03-28T03:30:48.975Z,98.72
2023-03-28T03:31:49.018Z,97.99
2023-03-28T03:32:48.991Z,97.89
2023-03-28T03:33:48.933Z,97.47
2023-03-28T03:34:48.948Z,97.58
2023-03-28T03:35:48.915Z,97.58
2023-03-28T03:36:48.897Z,97.85
2023-03-28T03:37:48.999Z,97.36
2023-03-28T03:38:48.874Z,96.84
2023-03-28T03:39:48.861Z,96.42
2023-03-28T03:40:48.873Z,96.73
2023-03-28T03:41:48.841Z,96.94
2023-03-28T03:42:48.831Z,96.21
2023-03-28T03:43:48.852Z,95.90
2023-03-28T03:44:48.820Z,96.21
2023-03-28T03:45:48.813Z,94.54
2023-03-28T03:46:49.004Z,94.64
2023-03-28T03:47:48.869Z,94.85
2023-03-28T03:48:49.990Z,95.54
2023-03-28T03:49:48.772Z,95.33
2023-03-28T03:50:48.750Z,95.90
2023-03-28T03:51:48.729Z,96.06
2023-03-28T03:52:48.718Z,95.86
2023-03-28T03:53:48.743Z,95.64
2023-03-28T03:54:48.696Z,95.58
2023-03-28T03:55:48.682Z,95.79
2023-03-28T03:56:48.723Z,95.79
2023-03-28T03:57:48.662Z,95.90
2023-03-28T03:58:48.652Z,95.90
2023-03-28T03:59:48.636Z,95.79
2023-03-28T04:00:48.627Z,95.58
2023-03-28T04:01:48.659Z,96.21
2023-03-28T04:02:48.664Z,95.48
2023-03-28T04:03:48.619Z,95.37
2023-03-28T04:04:48.623Z,95.10
2023-03-28T04:05:48.569Z,95.48
2023-03-28T04:06:48.558Z,94.85
2023-03-28T04:07:48.583Z,95.27
2023-03-28T04:08:49.381Z,94.64
2023-03-28T04:09:48.557Z,94.43
2023-03-28T04:10:48.522Z,94.74
2023-03-28T04:11:48.499Z,94.54
2023-03-28T04:12:48.512Z,94.64
2023-03-28T04:13:48.478Z,95.06
2023-03-28T04:14:48.477Z,94.64
2023-03-28T04:15:48.478Z,94.64
2023-03-28T04:16:48.443Z,94.74
2023-03-28T04:17:48.518Z,94.54
2023-03-28T04:18:48.423Z,94.54
2023-03-28T04:19:48.412Z,94.64
2023-03-28T04:20:48.410Z,94.79
2023-03-28T04:21:48.391Z,94.64
2023-03-28T04:22:57.578Z,94.58
2023-03-28T04:23:48.459Z,94.12
2023-03-28T04:24:48.359Z,94.22
2023-03-28T04:25:48.421Z,93.91
2023-03-28T04:26:48.356Z,93.80
2023-03-28T04:27:48.337Z,94.43
2023-03-28T04:28:48.352Z,93.80
2023-03-28T04:29:48.322Z,93.59
2023-03-28T04:30:48.299Z,93.11
2023-03-28T04:31:48.351Z,93.21
2023-03-28T04:32:48.312Z,93.27
2023-03-28T04:33:48.318Z,93.17
2023-03-28T04:34:48.318Z,92.90
2023-03-28T04:35:48.352Z,93.11
2023-03-28T04:36:48.226Z,92.86
2023-03-28T04:37:48.228Z,93.07
2023-03-28T04:38:48.435Z,93.07
2023-03-28T04:39:48.229Z,92.86
2023-03-28T04:40:48.190Z,93.17
2023-03-28T04:41:48.266Z,93.07
2023-03-28T04:42:48.224Z,93.07
2023-03-28T04:43:48.180Z,93.07
2023-03-28T04:44:48.172Z,93.80
2023-03-28T04:45:48.203Z,92.54
2023-03-28T04:46:48.117Z,92.65
2023-03-28T04:47:48.225Z,93.11
2023-03-28T04:48:48.117Z,92.80
2023-03-28T04:49:48.124Z,92.90
2023-03-28T04:50:48.128Z,92.13
2023-03-28T04:51:48.125Z,92.86
2023-03-28T04:52:48.119Z,92.65
2023-03-28T04:53:48.056Z,92.54
2023-03-28T04:54:48.073Z,92.69
2023-03-28T04:55:48.084Z,92.90
2023-03-28T04:56:48.134Z,92.13
2023-03-28T04:57:48.031Z,92.06
2023-03-28T04:58:48.013Z,92.13
2023-03-28T04:59:47.976Z,92.02
2023-03-28T05:00:47.967Z,92.23
2023-03-28T05:01:47.998Z,92.06
2023-03-28T05:02:48.084Z,92.16
2023-03-28T05:03:47.998Z,92.06
2023-03-28T05:04:47.932Z,92.38
2023-03-28T05:05:47.898Z,92.27
2023-03-28T05:06:47.893Z,91.96
2023-03-28T05:07:47.878Z,91.33
2023-03-28T05:08:47.867Z,91.01
2023-03-28T05:09:47.897Z,90.38
2023-03-28T05:10:47.861Z,90.70
2023-03-28T05:11:47.837Z,91.43
2023-03-28T05:12:47.820Z,90.91
2023-03-28T05:13:47.824Z,91.43
2023-03-28T05:14:47.856Z,91.01
2023-03-28T05:15:47.829Z,90.91
2023-03-28T05:16:47.812Z,91.50
2023-03-28T05:17:47.810Z,91.43
2023-03-28T05:18:47.751Z,91.64
2023-03-28T05:19:47.738Z,92.16
2023-03-28T05:20:47.759Z,92.13
2023-03-28T05:21:47.758Z,92.90
2023-03-28T05:22:47.718Z,92.54
2023-03-28T05:23:51.709Z,92.13
2023-03-28T05:24:47.710Z,92.06
2023-03-28T05:25:47.693Z,92.13
2023-03-28T05:26:47.661Z,92.06
2023-03-28T05:27:47.691Z,91.53
2023-03-28T05:28:47.682Z,91.22
2023-03-28T05:29:48.048Z,91.85
2023-03-28T05:30:47.716Z,92.16
2023-03-28T05:31:47.787Z,91.75
2023-03-28T05:32:47.686Z,90.49
2023-03-28T05:33:47.596Z,89.75
2023-03-28T05:34:47.640Z,90.07
2023-03-28T05:35:47.605Z,90.07
2023-03-28T05:36:47.550Z,90.28
2023-03-28T05:37:47.601Z,90.17
2023-03-28T05:38:47.531Z,91.33
2023-03-28T05:39:47.536Z,91.53
2023-03-28T05:40:47.503Z,90.59
2023-03-28T05:41:47.493Z,91.33
2023-03-28T05:42:47.522Z,90.28
2023-03-28T05:43:47.472Z,89.75
2023-03-28T05:44:47.470Z,90.28
2023-03-28T05:45:47.523Z,89.86
2023-03-28T05:46:47.436Z,90.49
2023-03-28T05:47:47.489Z,91.22
2023-03-28T05:48:49.618Z,91.53
2023-03-28T05:49:47.420Z,91.22
2023-03-28T05:50:47.392Z,91.43
2023-03-28T05:51:47.384Z,91.12
2023-03-28T05:52:47.392Z,91.53
2023-03-28T05:53:47.366Z,91.22
2023-03-28T05:54:50.629Z,91.22
2023-03-28T05:55:47.342Z,91.33
2023-03-28T05:56:47.400Z,91.43
2023-03-28T05:57:47.350Z,91.43
2023-03-28T05:58:47.307Z,91.50
2023-03-28T05:59:47.373Z,90.76
2023-03-28T06:00:47.292Z,91.12
2023-03-28T06:01:47.406Z,91.22
2023-03-28T06:02:47.306Z,91.43
2023-03-28T06:03:47.309Z,90.70
2023-03-28T06:04:47.289Z,91.12
2023-03-28T06:05:47.249Z,91.39
2023-03-28T06:06:47.229Z,91.08
2023-03-28T06:07:47.226Z,91.39
2023-03-28T06:08:47.210Z,90.51
2023-03-28T06:09:47.183Z,90.51
2023-03-28T06:10:47.164Z,90.20
2023-03-28T06:11:47.172Z,89.57
2023-03-28T06:12:47.163Z,90.36
2023-03-28T06:13:47.139Z,90.47
2023-03-28T06:14:47.120Z,89.73
2023-03-28T06:15:47.133Z,89.80
2023-03-28T06:16:47.140Z,88.75
2023-03-28T06:17:47.200Z,87.92
2023-03-28T06:18:47.078Z,88.34
2023-03-28T06:19:47.074Z,88.44
2023-03-28T06:20:47.054Z,88.44
2023-03-28T06:21:47.047Z,89.03
2023-03-28T06:22:47.048Z,89.13
2023-03-28T06:23:47.032Z,88.88
2023-03-28T06:24:47.004Z,87.94
2023-03-28T06:25:47.057Z,87.63
2023-03-28T06:26:46.987Z,88.40
2023-03-28T06:27:46.993Z,89.38
2023-03-28T06:28:46.965Z,89.59
2023-03-28T06:29:46.987Z,91.31
2023-03-28T06:30:46.941Z,91.98
2023-03-28T06:31:47.017Z,91.98
2023-03-28T06:32:46.967Z,92.08
2023-03-28T06:33:46.943Z,92.92
2023-03-28T06:34:46.900Z,92.61
2023-03-28T06:35:47.015Z,92.61
2023-03-28T06:36:46.877Z,92.82
2023-03-28T06:37:46.907Z,93.13
2023-03-28T06:38:46.988Z,93.55
2023-03-28T06:39:46.850Z,92.71
2023-03-28T06:40:46.885Z,92.13
2023-03-28T06:41:46.853Z,92.33
2023-03-28T06:42:46.829Z,91.08
2023-03-28T06:43:46.799Z,91.18
2023-03-28T06:44:46.810Z,90.34
2023-03-28T06:45:46.785Z,90.17
2023-03-28T06:46:46.866Z,90.45
2023-03-28T06:47:46.842Z,90.55
2023-03-28T06:48:46.738Z,91.08
2023-03-28T06:49:46.753Z,91.43
2023-03-28T06:50:54.390Z,90.38
2023-03-28T06:51:54.390Z,90.38
2023-03-28T06:52:46.780Z,90.66
2023-03-28T06:53:46.711Z,90.03
2023-03-28T06:54:53.868Z,90.13
2023-03-28T06:55:54.344Z,90.13
2023-03-28T06:56:46.712Z,90.03
2023-03-28T06:57:46.649Z,90.34
2023-03-28T06:58:46.647Z,90.20
2023-03-28T06:59:46.648Z,90.09
2023-03-28T07:00:46.654Z,89.29
2023-03-28T07:01:46.631Z,89.61
2023-03-28T07:02:46.651Z,89.50
2023-03-28T07:03:47.021Z,89.61
2023-03-28T07:04:46.573Z,89.19
2023-03-28T07:05:46.612Z,89.61
2023-03-28T07:06:46.566Z,89.40
2023-03-28T07:07:46.528Z,88.56
2023-03-28T07:08:46.532Z,89.19
2023-03-28T07:09:46.531Z,89.29
2023-03-28T07:10:46.495Z,89.25
2023-03-28T07:11:46.502Z,89.36
2023-03-28T07:12:46.479Z,89.15
2023-03-28T07:13:46.510Z,88.10
2023-03-28T07:14:46.480Z,87.68
2023-03-28T07:15:46.468Z,87.51
2023-03-28T07:16:46.466Z,87.62
2023-03-28T07:17:46.489Z,87.37
2023-03-28T07:18:46.438Z,87.26
2023-03-28T07:19:46.941Z,86.70
2023-03-28T07:20:51.925Z,86.45
2023-03-28T07:21:47.526Z,86.62
2023-03-28T07:22:46.448Z,86.13
2023-03-28T07:23:46.366Z,85.73
2023-03-28T07:24:46.338Z,84.65
2023-03-28T07:25:46.337Z,82.73
2023-03-28T07:26:46.313Z,82.17
2023-03-28T07:27:46.334Z,81.20
2023-03-28T07:28:46.313Z,80.47
2023-03-28T07:29:46.310Z,79.70
2023-03-28T07:30:46.284Z,79.39
2023-03-28T07:31:46.332Z,79.56
2023-03-28T07:33:46.271Z,77.75
2023-03-28T07:34:46.254Z,77.13
2023-03-28T07:35:46.291Z,76.65
2023-03-28T07:36:46.239Z,76.86
2023-03-28T07:37:46.216Z,76.99
2023-03-28T07:38:48.637Z,77.62
2023-03-28T07:39:46.183Z,76.43
2023-03-28T07:40:46.192Z,77.62
2023-03-28T07:41:46.170Z,78.35
2023-03-28T07:42:46.142Z,77.62
2023-03-28T07:43:46.120Z,77.34
2023-03-28T07:44:46.130Z,76.72
2023-03-28T07:45:46.135Z,78.94
2023-03-28T07:46:46.114Z,77.72
2023-03-28T07:47:46.096Z,77.10
2023-03-28T07:48:46.092Z,75.74
2023-03-28T07:49:46.064Z,76.40
2023-03-28T07:50:46.043Z,77.34
2023-03-28T07:51:46.032Z,79.05
2023-03-28T07:52:46.048Z,79.33
2023-03-28T07:53:46.202Z,79.33
2023-03-28T07:54:46.046Z,79.57
2023-03-28T07:55:54.558Z,80.65
2023-03-28T07:56:47.035Z,81.73
2023-03-28T07:57:45.973Z,82.46
2023-03-28T07:58:45.966Z,82.46
2023-03-28T07:59:45.973Z,82.57
2023-03-28T08:00:45.997Z,82.74
2023-03-28T08:01:46.224Z,82.22
2023-03-28T08:02:46.011Z,82.84
2023-03-28T08:03:46.012Z,81.66
2023-03-28T08:04:45.899Z,81.41
2023-03-28T08:05:45.951Z,78.70
2023-03-28T08:06:45.913Z,81.62
2023-03-28T08:07:45.888Z,79.19
2023-03-28T08:08:45.852Z,77.34
2023-03-28T08:09:45.883Z,77.34
2023-03-28T08:10:45.825Z,77.59
2023-03-28T08:11:45.809Z,76.86
2023-03-28T08:12:45.821Z,77.17
2023-03-28T08:13:45.794Z,78.67
2023-03-28T08:14:45.769Z,79.08
2023-03-28T08:15:45.805Z,78.88
2023-03-28T08:16:45.782Z,79.29
2023-03-28T08:17:45.812Z,79.29
2023-03-28T08:18:47.460Z,79.99
2023-03-28T08:19:45.737Z,81.13
2023-03-28T08:20:45.702Z,80.05
2023-03-28T08:21:45.695Z,79.53
2023-03-28T08:22:45.705Z,79.08
2023-03-28T08:23:45.692Z,77.58
2023-03-28T08:24:45.662Z,75.63
2023-03-28T08:25:45.732Z,75.22
2023-03-28T08:26:48.547Z,75.50
2023-03-28T08:27:45.699Z,76.54
2023-03-28T08:28:45.612Z,76.20
2023-03-28T08:29:45.628Z,75.78
2023-03-28T08:30:45.589Z,75.78
2023-03-28T08:31:45.685Z,76.09
2023-03-28T08:32:48.233Z,75.78
2023-03-28T08:33:45.583Z,76.12
2023-03-28T08:34:45.563Z,76.47
2023-03-28T08:35:45.572Z,77.66
2023-03-28T08:36:45.522Z,79.33
2023-03-28T08:37:45.534Z,80.09
2023-03-28T08:38:45.503Z,80.09
2023-03-28T08:39:45.491Z,81.56
2023-03-28T08:40:50.020Z,81.73
2023-03-28T08:41:45.504Z,79.88
2023-03-28T08:42:45.455Z,79.57
2023-03-28T08:43:45.471Z,79.08
2023-03-28T08:44:48.326Z,79.92
2023-03-28T08:45:45.439Z,79.29
2023-03-28T08:46:45.539Z,77.87
2023-03-28T08:47:45.496Z,77.94
2023-03-28T08:48:45.392Z,77.31
2023-03-28T08:49:45.391Z,75.74
2023-03-28T08:50:45.390Z,76.02
2023-03-28T08:51:45.401Z,75.81
2023-03-28T08:52:45.362Z,74.24
2023-03-28T08:53:45.385Z,72.85
2023-03-28T08:54:53.169Z,73.07
2023-03-28T08:55:45.500Z,73.13
2023-03-28T08:56:45.438Z,72.51
2023-03-28T08:57:45.448Z,72.82
2023-03-28T08:58:45.324Z,72.47
2023-03-28T08:59:45.302Z,72.37
2023-03-28T09:00:45.256Z,71.50
2023-03-28T09:01:45.431Z,71.71
2023-03-28T09:02:45.334Z,70.46
2023-03-28T09:03:45.324Z,70.56
2023-03-28T09:06:41.637Z,69.63
2023-03-28T09:07:41.915Z,70.53
2023-03-28T09:08:41.615Z,69.81
2023-03-28T09:09:49.436Z,69.49
2023-03-28T09:10:41.618Z,69.94
2023-03-28T09:13:16.526Z,73.45
2023-03-28T09:14:16.456Z,74.80
2023-03-28T09:15:16.387Z,75.64
2023-03-28T09:16:16.500Z,75.53
2023-03-28T09:17:24.587Z,75.57
2023-03-28T09:18:16.386Z,76.61
2023-03-28T09:20:43.688Z,79.05
2023-03-28T09:21:43.757Z,77.45
2023-03-28T09:22:43.752Z,78.31
2023-03-28T09:23:43.720Z,79.08
2023-03-28T09:24:43.752Z,79.08
2023-03-28T09:25:51.692Z,79.08
2023-03-28T09:26:44.028Z,79.08
2023-03-28T09:27:53.911Z,78.97
2023-03-28T09:30:11.503Z,79.05
2023-03-28T09:31:11.465Z,78.91
2023-03-28T09:42:09.922Z,71.26
2023-03-28T09:43:10.073Z,71.05
2023-03-28T09:44:10.514Z,70.88
2023-03-28T09:45:10.043Z,71.85
2023-03-28T09:46:09.883Z,69.45
2023-03-28T09:47:19.185Z,69.03
2023-03-28T09:48:10.205Z,69.53
2023-03-28T09:49:09.811Z,68.69
2023-03-28T09:50:13.336Z,67.54
2023-03-28T09:51:09.582Z,68.17
2023-03-28T09:52:10.536Z,68.52
2023-03-28T09:53:09.588Z,68.80
2023-03-28T09:54:09.611Z,68.60
2023-03-28T09:55:09.622Z,68.18
2023-03-28T09:56:09.621Z,68.63
2023-03-28T09:57:09.594Z,69.56
2023-03-28T09:58:09.521Z,70.64
2023-03-28T09:59:09.723Z,71.47
2023-03-28T10:00:09.579Z,70.67
2023-03-28T10:01:09.665Z,71.89
2023-03-28T10:03:32.077Z,72.51
2023-03-28T10:04:31.959Z,72.38
2023-03-28T10:05:31.907Z,72.06
2023-03-28T10:06:31.969Z,69.74
2023-03-28T10:07:31.954Z,70.43
2023-03-28T10:08:31.758Z,67.42
2023-03-28T10:09:31.956Z,67.42
2023-03-28T10:10:31.872Z,68.77
2023-03-28T10:11:31.766Z,68.49
2023-03-28T10:12:31.740Z,68.46
2023-03-28T10:13:31.802Z,68.35
2023-03-28T10:14:31.725Z,67.70
2023-03-28T10:15:31.745Z,67.91
2023-03-28T10:16:31.756Z,67.39
2023-03-28T10:23:48.735Z,68.52
2023-03-28T10:24:48.684Z,68.91
2023-03-28T10:25:48.740Z,68.18
2023-03-28T10:26:48.659Z,68.66
2023-03-28T10:27:48.669Z,68.46
2023-03-28T10:28:48.653Z,68.46
2023-03-28T10:29:48.618Z,67.00
2023-03-28T10:30:48.683Z,68.77
2023-03-28T10:31:48.607Z,68.98
2023-03-28T10:32:48.654Z,69.29
2023-03-28T10:33:48.579Z,69.26
2023-03-28T10:34:48.622Z,70.17
2023-03-28T10:35:48.626Z,69.12
2023-03-28T10:36:48.588Z,68.26
2023-03-28T10:37:48.548Z,67.33
2023-03-28T10:38:48.561Z,68.05
2023-03-28T10:39:48.567Z,66.28
2023-03-28T10:40:48.548Z,66.53
2023-03-28T10:41:48.505Z,66.94
2023-03-28T10:42:48.482Z,68.08
2023-03-28T10:43:48.477Z,68.84
2023-03-28T10:44:49.119Z,68.50
2023-03-28T10:45:48.478Z,68.81
2023-03-28T10:46:48.502Z,68.71
2023-03-28T10:47:48.482Z,68.29
2023-03-28T10:48:48.422Z,68.12
2023-03-28T10:49:48.399Z,69.37
2023-03-28T10:50:48.426Z,68.74
2023-03-28T10:51:48.410Z,67.49
2023-03-28T10:52:48.371Z,66.87
2023-03-28T10:53:48.354Z,65.52
2023-03-28T10:54:48.349Z,66.24
2023-03-28T10:55:48.370Z,66.74
2023-03-28T10:56:48.402Z,67.15
2023-03-28T10:57:48.334Z,66.84
2023-03-28T10:58:48.374Z,67.77
2023-03-28T10:59:48.297Z,68.60
2023-03-28T11:00:48.312Z,67.98
2023-03-28T11:01:48.352Z,66.97
2023-03-28T11:02:48.423Z,68.22
2023-03-28T11:03:48.440Z,68.63
2023-03-28T11:04:48.246Z,68.63
2023-03-28T11:06:01.681Z,68.53
2023-03-28T11:06:49.216Z,68.74
2023-03-28T11:07:48.301Z,69.47
2023-03-28T11:08:48.205Z,69.37
2023-03-28T11:09:48.329Z,69.37
2023-03-28T11:10:48.186Z,68.50
2023-03-28T11:11:48.193Z,68.99
2023-03-28T11:12:55.039Z,69.06
2023-03-28T11:13:49.154Z,68.44
2023-03-28T11:14:48.163Z,67.61
2023-03-28T11:15:48.216Z,66.78
2023-03-28T11:16:48.120Z,66.22
2023-03-28T11:17:48.216Z,66.33
2023-03-28T11:18:48.085Z,66.02
2023-03-28T11:19:48.095Z,66.44
2023-03-28T11:20:48.058Z,66.78
2023-03-28T11:21:48.042Z,66.25
2023-03-28T11:23:02.747Z,66.60
2023-03-28T11:23:49.082Z,67.09
2023-03-28T11:24:48.056Z,65.56
2023-03-28T11:25:47.990Z,66.94
2023-03-28T11:26:47.997Z,66.11
2023-03-28T11:27:47.996Z,66.24
2023-03-28T11:28:48.004Z,67.77
2023-03-28T11:29:47.978Z,66.39
2023-03-28T11:30:47.928Z,67.12
2023-03-28T11:31:48.059Z,66.47
2023-03-28T11:32:47.946Z,67.12
2023-03-28T11:33:47.915Z,68.23
2023-03-28T11:34:47.887Z,68.54
2023-03-28T11:35:47.963Z,67.61
2023-03-28T11:36:47.881Z,67.79
2023-03-28T11:37:47.846Z,66.05
2023-03-28T11:38:47.846Z,66.88
2023-03-28T11:39:47.870Z,66.25
2023-03-28T11:40:47.832Z,67.95
2023-03-28T11:41:47.938Z,68.65
2023-03-28T11:42:47.796Z,68.68
2023-03-28T11:43:47.819Z,68.44
2023-03-28T11:44:47.798Z,68.93
2023-03-28T11:45:52.133Z,68.59
2023-03-28T11:46:48.859Z,67.96
2023-03-28T11:47:47.816Z,63.37
2023-03-28T11:48:47.762Z,64.09
2023-03-28T11:49:47.710Z,66.17
2023-03-28T11:50:47.751Z,65.93
2023-03-28T11:51:47.694Z,63.37
2023-03-28T11:52:47.674Z,63.47
2023-03-28T11:53:47.666Z,63.60
2023-03-28T11:54:47.689Z,62.88
2023-03-28T11:55:47.665Z,63.09
2023-03-28T11:56:47.640Z,62.88
2023-03-28T11:57:47.633Z,64.46
2023-03-28T11:58:47.610Z,65.78
2023-03-28T11:59:47.620Z,64.75
2023-03-28T12:00:47.640Z,66.47
2023-03-28T12:01:47.584Z,65.96
2023-03-28T12:02:47.655Z,66.30
2023-03-28T12:03:47.637Z,65.26
2023-03-28T12:04:47.543Z,65.26
2023-03-28T12:05:47.551Z,65.65
2023-03-28T12:06:59.634Z,65.55
2023-03-28T12:07:48.510Z,67.96
2023-03-28T12:08:47.517Z,67.37
2023-03-28T12:09:47.515Z,67.58
2023-03-28T12:10:47.496Z,68.44
2023-03-28T12:11:47.462Z,70.10
2023-03-28T12:12:47.464Z,71.03
2023-03-28T12:13:55.439Z,71.14
2023-03-28T12:14:48.432Z,69.37
2023-03-28T12:15:47.448Z,69.27
2023-03-28T12:16:47.501Z,70.20
2023-03-28T12:17:47.431Z,71.03
2023-03-28T12:18:47.407Z,70.59
2023-03-28T12:19:47.466Z,71.56
2023-03-28T12:20:47.363Z,70.83
2023-03-28T12:21:47.357Z,68.44
2023-03-28T12:22:47.371Z,68.34
2023-03-28T12:23:47.341Z,68.65
2023-03-28T12:24:47.320Z,68.59
2023-03-28T12:25:47.330Z,67.96
2023-03-28T12:26:47.376Z,67.34
2023-03-28T12:27:47.289Z,68.69
2023-03-28T12:28:47.273Z,68.69
2023-03-28T12:29:47.282Z,70.31
2023-03-28T12:30:47.266Z,68.96
2023-03-28T12:31:47.269Z,69.52
2023-03-28T12:32:47.229Z,69.79
2023-03-28T12:33:47.221Z,70.21
2023-03-28T12:34:47.227Z,72.77
2023-03-28T12:35:47.233Z,71.18
2023-03-28T12:36:47.192Z,69.49
2023-03-28T12:37:47.189Z,68.18
2023-03-28T12:38:47.160Z,66.65
2023-03-28T12:39:47.178Z,67.69
2023-03-28T12:40:47.160Z,68.52
2023-03-28T12:41:47.129Z,67.38
2023-03-28T12:42:47.110Z,66.38
2023-03-28T12:43:47.095Z,65.68
2023-03-28T12:44:47.119Z,67.06
2023-03-28T12:45:47.142Z,68.02
2023-03-28T12:46:47.062Z,69.06
2023-03-28T12:47:47.114Z,69.37
2023-03-28T12:48:47.044Z,68.82
2023-03-28T12:49:47.025Z,70.48
2023-03-28T12:50:47.060Z,71.55
2023-03-28T12:51:47.008Z,71.00
2023-03-28T12:52:47.000Z,70.31
2023-03-28T12:53:46.989Z,70.31
2023-03-28T12:54:46.970Z,70.41
2023-03-28T12:55:46.982Z,70.51
2023-03-28T12:56:46.992Z,71.45
2023-03-28T12:57:47.058Z,71.80
2023-03-28T12:58:46.928Z,71.69
2023-03-28T12:59:46.934Z,72.38
2023-03-28T13:00:46.907Z,73.74
2023-03-28T13:01:46.961Z,73.22
2023-03-28T13:02:47.005Z,72.49
2023-03-28T13:03:46.916Z,71.14
2023-03-28T13:04:46.926Z,72.28
2023-03-28T13:05:46.865Z,72.38
2023-03-28T13:06:46.847Z,72.28
2023-03-28T13:07:46.854Z,73.53
2023-03-28T13:08:46.830Z,73.11
2023-03-28T13:09:46.807Z,74.15
2023-03-28T13:10:46.820Z,73.14
2023-03-28T13:11:46.784Z,73.53
2023-03-28T13:12:46.771Z,74.15
2023-03-28T13:13:46.783Z,73.63
2023-03-28T13:14:46.761Z,73.94
2023-03-28T13:15:46.758Z,73.84
2023-03-28T13:16:46.751Z,75.67
2023-03-28T13:17:46.762Z,74.63